Accueil
METAR-TAF:

METAR-TAF

Aéroports :

Aéroport international Agostinho-Neto

Pointe-Noire, Congo

latitude: 04-49S, longitude: 011-54E, altitude: 17 m

Observation

Le bulletin a été fait il y a 24 minutes, à 21:00 UTC
Vent 4 kt de sud
Température 23°C
Humidité 94%
Pression 1016 hPa
Visibilité 10 km ou plus
Quelques nuages à une hauteur de 1000 ft
Nuages fragmentés à une hauteur de 2000 ft

METAR: FCPP 192100Z 19004KT 9999 FEW010 BKN020 23/22 Q1016 NOSIG

Heure: 22:24 (21:24 UTC)

Prévision

Le bulletin a été fait il y a 4 heures et 24 minutes, à 17:00 UTC
Prévision valable du 19 à 18 UTC au 20 à 18 UTC
Vent 7 kt de sud
Visibilité: 8000 m
Nuages épars à une hauteur de 1200 ft
Nuages fragmentés à une hauteur de 2600 ft

TAF: FCPP 191700Z 1918/2018 18007KT 8000 SCT012 BKN026

Observations et prévisions météorologiques de plus de 4000 aéroports (messages METAR et TAF).

Les stations disponibles sont représentées par des disques jaunes et rouges sur la carte.

Passer la souris dessus pour voir le nom de la station.

Cliquer dessus pour voir les observations et prévisions météorologiques.

Pour changer de carte: cliquez sur les boutons verts avec une croix noire pour zoomer, sur le bouton vert avec un tiret pour effectuer un zoom arrière, ou sur les flèches vertes pour les cartes adjacentes.


METAR-TAF: